Date,TemperatureHighF,TemperatureAvgF,TemperatureLowF,DewpointHighF,DewpointAvgF,DewpointLowF,HumidityHigh,HumidityAvg,HumidityLow,PressureMaxIn,PressureMinIn,WindSpeedMaxMPH,WindSpeedAvgMPH,GustSpeedMaxMPH,PrecipitationSumIn
2013-1-1,39.2,32.7,25.3,38.4,30.1,21.4,97,90,83,30.32,30.07,8,1,0,0.01
2013-1-2,40.0,29.2,20.2,29.9,24.6,18.5,93,83,67,30.35,30.23,11,1,0,0.00
2013-1-3,46.6,34.8,24.5,32.7,27.0,22.8,95,75,45,30.50,30.33,8,1,0,0.00
2013-1-4,49.6,40.4,22.5,29.7,26.2,20.5,93,59,40,30.50,30.34,13,3,0,0.00
2013-1-5,49.6,41.3,32.0,35.5,31.7,25.5,89,69,52,30.34,30.17,15,3,18,0.00
2013-1-6,52.1,38.3,27.0,30.0,24.6,21.9,90,61,32,30.44,30.29,8,1,0,0.00
2013-1-7,53.4,41.5,24.4,31.1,28.0,20.8,87,60,41,30.37,30.12,13,2,14,0.00
2013-1-8,57.7,45.2,34.2,45.8,36.1,27.4,95,72,49,30.19,30.03,19,2,19,0.43
2013-1-9,55.0,51.2,47.1,48.1,45.3,41.0,96,81,61,30.32,30.14,9,2,0,0.09
2013-1-10,56.7,52.5,49.8,54.6,50.2,44.9,97,92,76,30.14,29.78,9,2,0,0.18
2013-1-11,70.5,60.3,46.4,51.0,47.3,44.2,93,64,42,29.80,29.66,19,6,21,0.00
2013-1-12,61.4,41.0,27.5,52.2,30.9,22.6,89,70,31,30.12,29.77,15,2,16,0.26
2013-1-13,35.1,27.3,21.1,22.7,18.5,13.8,83,70,52,30.44,30.01,11,2,14,0.02
2013-1-14,30.4,23.2,21.2,17.8,16.4,14.2,85,75,52,30.53,30.41,8,0,0,0.00
2013-1-17,56.5,47.3,34.1,34.1,30.9,28.3,80,54,36,30.50,30.43,9,1,0,0.00
2013-1-18,59.1,44.0,31.3,33.6,30.1,27.0,85,62,34,30.51,30.24,18,4,19,0.00
2013-1-19,67.2,54.2,41.2,37.9,36.4,34.8,78,53,32,30.20,30.06,14,3,15,0.00
2013-1-20,65.3,51.3,40.8,43.4,34.9,30.3,79,54,42,30.24,30.10,13,2,13,0.00
2013-1-21,44.1,34.7,26.1,18.6,16.9,15.2,64,49,32,30.44,30.30,7,2,0,0.00
2013-1-22,55.1,38.6,25.2,30.6,24.3,18.0,77,58,38,30.34,30.19,15,2,15,0.00
2013-1-23,63.7,46.5,29.9,44.6,35.6,25.4,84,67,48,30.27,30.12,8,1,0,0.00
2013-1-24,48.8,41.3,37.3,39.4,25.6,21.5,70,54,45,30.27,30.09,9,2,5,0.00
2013-1-25,51.7,41.2,34.2,32.4,28.3,24.1,72,61,43,30.25,30.12,7,1,0,0.00
2013-1-26,53.9,45.8,33.9,37.0,32.2,27.9,81,60,45,30.26,30.07,12,3,12,0.00
2013-1-27,61.9,54.3,46.9,57.6,50.5,36.0,96,87,65,30.10,29.85,18,5,18,0.01
2013-1-28,75.2,68.4,58.4,63.8,62.3,56.1,92,81,65,29.90,29.70,20,7,20,0.00
2013-1-29,72.1,59.3,43.3,64.2,55.1,39.7,96,87,68,29.70,29.38,20,5,28,1.10
2013-1-30,43.3,38.1,29.1,39.7,29.7,25.1,87,72,55,30.08,29.56,17,3,18,0.01
2013-1-31,53.1,34.9,24.8,30.9,23.6,12.7,89,65,37,30.48,30.03,14,2,14,0.00
2013-2-1,45.6,31.5,19.2,24.1,14.0,3.5,65,49,32,30.50,30.17,15,2,15,0.00
2013-2-2,60.4,43.8,28.3,34.1,29.2,22.8,85,59,33,30.29,30.19,10,1,0,0.00
2013-2-3,58.1,49.2,38.4,32.5,28.0,22.8,67,46,27,30.31,29.92,11,2,0,0.00
2013-2-4,69.9,58.2,51.6,41.0,35.1,29.5,53,43,24,29.92,29.79,11,4,0,0.00
2013-2-5,70.7,56.8,33.7,43.9,36.1,31.0,90,50,25,30.03,29.96,6,1,0,0.00
2013-2-6,64.5,53.2,39.3,52.7,42.1,34.3,85,67,50,30.04,29.86,16,4,17,0.00
2013-2-7,60.6,53.1,44.5,55.9,48.5,38.4,93,84,72,30.14,29.81,10,3,0,0.03
2013-2-8,52.8,42.7,35.3,38.3,34.3,31.3,88,73,49,30.33,30.14,8,1,0,0.00
2013-2-9,43.4,41.6,39.9,37.6,35.6,34.0,86,79,73,30.17,29.95,14,4,15,0.03
2013-2-10,63.1,57.2,51.8,52.6,35.1,24.5,96,48,25,29.87,29.64,21,7,21,0.17
2013-2-11,55.7,47.2,35.7,29.4,26.1,23.3,68,45,29,30.23,30.10,8,1,0,0.00
2013-2-12,43.2,39.6,34.5,39.1,32.7,27.0,94,78,55,30.13,29.95,9,1,0,0.25
2013-2-13,56.5,43.2,35.6,38.4,34.4,29.9,95,74,40,30.06,29.94,11,3,15,0.02
2013-2-14,61.6,48.3,36.3,36.8,31.6,26.3,69,54,37,30.21,29.97,9,1,0,0.00
2013-2-15,47.6,38.9,31.4,32.8,20.7,11.4,74,50,24,30.41,30.21,11,2,0,0.00
2013-2-16,46.6,37.2,27.2,29.1,18.2,11.4,76,48,29,30.41,30.08,12,2,14,0.00
2013-2-17,69.8,53.2,36.9,35.9,29.9,22.1,70,44,21,30.08,29.74,19,5,19,0.00
2013-2-18,61.9,56.6,44.1,51.5,39.8,26.8,73,54,38,30.12,29.61,21,7,26,0.00
2013-2-24,60.9,53.5,41.0,40.9,37.2,32.0,71,55,44,29.95,29.75,15,4,16,0.00
2013-2-25,47.4,40.7,34.3,38.4,35.9,32.7,95,84,63,29.81,29.45,14,3,16,1.02
2013-2-26,43.3,38.2,34.0,35.0,33.2,29.9,95,82,70,29.93,29.48,13,3,14,0.10
2013-2-27,49.7,38.8,31.7,33.7,29.6,27.1,90,71,43,30.17,29.92,15,3,17,0.00
2013-2-28,49.2,39.7,31.8,32.2,29.4,27.1,85,67,49,30.24,30.16,14,2,17,0.00
2013-3-1,41.7,37.1,32.4,28.8,24.9,18.3,70,61,50,30.34,30.22,11,2,0,0.00
2013-3-2,50.1,38.0,27.9,22.9,20.9,18.8,75,52,30,30.41,30.20,8,2,0,0.00
2013-3-3,63.7,48.8,33.9,34.5,28.1,21.5,68,46,29,30.20,29.66,17,5,18,0.00
2013-3-4,74.7,59.4,46.5,43.8,39.7,33.8,67,50,29,29.94,29.53,16,4,16,0.00
2013-3-5,51.9,43.4,36.5,37.6,25.2,18.1,85,51,29,30.38,29.94,15,3,17,0.07
2013-3-6,51.4,39.4,30.0,23.9,21.0,17.8,67,50,27,30.46,30.26,7,1,0,0.00
2013-3-7,67.0,61.4,53.9,32.1,29.4,26.3,43,30,22,30.12,30.06,18,6,18,0.00
2013-3-8,59.4,53.9,47.4,43.1,37.8,31.4,70,55,43,30.16,29.95,15,5,17,0.00
2013-3-9,63.0,59.0,55.2,57.9,49.7,37.6,94,73,44,29.95,29.62,19,5,19,0.39
2013-3-10,58.9,43.6,33.8,53.7,37.8,25.4,93,80,64,30.04,29.59,23,4,26,0.02
2013-3-11,55.2,40.6,30.1,27.2,22.7,13.4,82,53,20,30.06,29.97,13,2,16,0.00
2013-3-12,62.2,48.6,36.4,38.0,29.4,21.8,73,50,25,30.34,30.03,12,1,13,0.00
2013-3-13,57.4,45.8,32.1,27.1,24.4,20.5,78,46,26,30.49,30.33,8,1,0,0.00
2013-3-14,78.8,60.5,43.6,44.2,35.3,25.0,56,40,25,30.33,30.05,19,4,19,0.00
2013-3-15,83.0,69.2,55.0,50.3,45.8,43.1,70,46,25,30.08,29.72,19,5,23,0.00
2013-3-16,75.0,63.9,49.9,51.9,45.8,39.4,67,52,42,29.81,29.68,13,3,14,0.00
2013-3-17,49.9,45.0,42.0,42.9,40.8,37.8,92,85,68,29.82,29.68,12,2,12,0.00
2013-3-18,64.3,49.9,41.4,43.1,36.4,24.5,94,66,26,30.04,29.68,8,1,0,0.01
2013-3-19,59.6,49.6,39.1,32.1,28.8,23.6,73,46,28,30.25,30.00,10,2,0,0.00
2013-3-20,54.8,45.3,36.7,34.4,26.8,20.3,83,52,27,30.40,30.07,11,1,0,0.00
2013-3-21,43.7,40.9,38.8,35.6,28.1,21.0,85,61,40,30.07,29.73,20,3,20,0.06
2013-3-22,47.7,42.5,38.1,39.8,37.9,35.4,94,84,72,29.92,29.78,9,2,0,0.27
2013-3-23,43.8,42.0,39.5,42.5,39.6,36.7,95,91,82,29.92,29.72,9,1,14,0.02
2013-3-24,43.3,36.7,32.0,37.7,27.9,20.1,94,72,44,30.21,29.76,16,4,18,0.03
2013-3-25,41.1,37.0,31.0,23.3,20.7,17.4,69,52,40,30.41,30.20,14,3,16,0.00
2013-3-26,52.4,38.4,24.1,25.1,22.2,19.6,86,56,29,30.48,30.29,10,1,0,0.00
2013-3-27,67.7,53.5,36.1,34.8,28.9,24.1,64,41,27,30.30,30.07,18,5,19,0.00
2013-3-28,73.3,64.6,51.2,51.8,44.2,30.1,60,48,36,30.13,30.02,14,4,15,0.00
2013-3-29,71.7,63.1,55.1,59.1,56.2,51.1,93,78,63,30.10,30.02,12,2,15,0.58
2013-3-30,77.0,64.8,55.5,61.4,57.0,52.6,94,77,56,30.04,29.78,15,4,15,0.29
2013-3-31,72.8,62.7,53.4,58.9,48.8,42.0,93,64,35,29.98,29.82,11,1,14,0.00
2013-4-1,62.2,52.2,45.7,46.4,41.6,31.7,88,68,49,30.15,29.94,12,2,12,0.00
2013-4-2,46.1,41.7,39.2,39.9,36.9,30.8,94,84,57,30.23,30.14,11,2,0,0.44
2013-4-3,43.9,41.8,40.1,40.1,36.4,31.9,94,82,65,30.24,30.16,7,1,0,0.48
2013-4-4,61.6,49.4,40.1,41.7,38.3,33.1,94,70,36,30.20,30.08,8,1,0,0.24
2013-4-5,70.4,55.7,38.6,45.3,41.7,36.8,95,64,33,30.20,29.92,13,3,13,0.00
2013-4-6,77.1,66.2,57.5,53.1,49.3,45.0,70,56,39,29.92,29.74,22,6,25,0.00
2013-4-7,66.7,63.4,55.5,59.9,56.9,52.1,91,80,66,29.85,29.67,21,4,21,0.00
2013-4-8,75.3,68.7,62.7,63.0,60.5,58.3,92,76,64,29.72,29.59,19,6,19,0.00
2013-4-9,79.3,71.8,47.9,65.2,61.3,42.3,81,70,58,29.77,29.59,17,6,19,0.04
2013-4-10,47.9,40.0,37.2,42.3,36.8,32.0,94,88,80,29.97,29.74,19,3,19,0.56
2013-4-11,57.0,44.5,35.3,36.8,31.4,27.3,81,62,38,29.97,29.77,13,2,13,0.00
2013-4-12,65.7,51.3,38.9,37.0,33.6,29.2,85,54,29,30.03,29.82,9,1,13,0.00
2013-4-13,75.1,60.2,47.8,50.0,44.1,35.5,89,57,35,30.04,29.70,15,3,17,0.17
2013-4-14,81.2,67.7,58.5,54.8,49.5,46.9,69,53,38,29.71,29.44,21,7,27,0.00
2013-4-15,76.5,63.9,57.3,57.9,45.7,36.6,56,52,44,29.71,29.64,9,2,0,0.02
2013-4-16,60.5,55.1,51.5,52.2,49.1,46.6,88,80,72,29.95,29.84,7,1,0,0.00
2013-4-17,82.3,69.5,53.0,69.7,61.7,48.9,96,77,59,29.90,29.49,20,4,22,0.18
2013-4-18,67.2,47.4,42.2,64.4,39.8,27.8,95,76,56,30.09,29.46,21,3,21,1.34
2013-4-19,63.7,49.3,36.1,37.7,29.5,22.3,73,49,25,30.17,30.03,16,3,16,0.00
2013-4-20,72.2,56.3,42.8,40.1,36.2,27.9,82,52,21,30.16,30.00,14,3,16,0.00
2013-4-21,70.7,63.2,54.8,45.6,42.3,38.1,66,48,31,30.19,30.05,16,5,16,0.00
2013-4-22,76.6,64.5,50.7,53.7,47.4,42.3,75,55,42,30.11,29.81,19,4,19,0.00
2013-4-23,68.5,46.1,38.0,55.7,42.0,34.3,93,86,54,30.22,29.76,11,2,12,0.08
2013-4-24,60.3,47.2,35.3,34.3,30.5,25.4,87,56,28,30.33,30.20,9,1,12,0.01
2013-4-25,70.6,55.8,37.0,39.4,33.6,27.0,87,49,20,30.36,30.15,10,2,0,0.00
2013-4-26,63.1,57.0,53.9,53.0,47.7,39.6,95,74,43,30.17,30.03,13,2,13,0.16
2013-4-27,58.6,55.5,52.8,53.5,52.3,51.4,96,89,79,30.07,29.96,8,0,12,0.06
2013-4-28,66.3,55.7,50.2,56.2,51.0,47.8,93,84,70,30.03,29.97,6,1,0,0.00
2013-4-29,87.8,79.4,62.7,63.5,57.3,49.7,88,49,32,29.81,29.66,18,6,20,0.00
2013-4-30,84.7,75.0,63.3,60.7,56.0,47.7,79,54,28,29.76,29.67,18,5,18,0.00
2013-5-1,83.6,74.0,65.2,65.8,60.7,52.5,83,64,47,30.01,29.76,18,4,19,0.00
2013-5-2,67.4,45.2,37.7,52.2,39.9,35.3,93,82,60,30.38,30.01,10,2,0,0.16
2013-5-3,61.6,49.7,38.0,36.5,31.7,25.6,90,55,27,30.36,29.96,13,2,13,0.00
2013-5-4,49.4,45.8,41.3,47.1,40.5,34.3,93,82,58,30.04,29.88,8,1,0,0.15
2013-5-5,59.8,49.2,45.0,50.6,45.3,42.1,94,87,70,30.13,30.04,5,1,0,0.00
2013-5-6,71.5,58.5,45.0,56.4,51.6,43.7,97,79,52,30.12,29.99,6,0,0,0.00
2013-5-7,78.5,64.8,49.3,56.6,52.1,44.6,96,68,33,30.07,29.92,7,1,0,0.00
2013-5-8,83.8,72.2,61.5,62.5,55.5,49.3,85,57,37,29.97,29.80,15,4,17,0.06
2013-5-9,72.8,65.4,59.0,65.6,62.0,56.5,96,89,71,29.94,29.80,14,2,19,0.63
2013-5-10,74.2,65.7,57.1,64.7,58.7,52.8,96,80,56,30.04,29.88,5,1,0,0.29
2013-5-11,78.0,63.6,51.2,65.5,50.1,34.9,96,66,26,30.20,30.04,7,1,0,0.10
2013-5-12,72.4,60.9,46.2,47.0,40.6,31.7,83,50,25,30.26,30.09,10,1,0,0.00
2013-5-13,88.4,72.9,57.3,59.8,51.0,43.8,66,48,30,30.10,29.95,17,3,17,0.00
2013-5-14,89.0,77.7,64.4,60.0,54.1,49.8,61,45,31,29.99,29.85,18,4,19,0.00
2013-5-15,74.9,70.7,64.1,68.1,63.0,53.3,96,78,49,29.91,29.75,13,3,17,0.52
2013-5-16,76.3,67.8,63.0,67.3,63.5,60.9,95,87,66,29.83,29.74,9,1,0,0.29
2013-5-17,80.3,70.7,61.6,70.7,66.1,60.4,97,86,70,29.87,29.80,8,1,0,0.00
2013-5-18,87.8,78.5,70.9,75.9,71.9,69.1,94,81,64,29.82,29.67,12,3,15,0.00
2013-5-19,82.1,76.0,66.8,72.1,68.0,62.1,93,77,63,29.83,29.50,28,4,28,0.22
2013-5-20,83.7,76.4,72.1,73.2,69.9,65.7,90,81,70,29.72,29.55,22,3,25,0.03
2013-5-21,72.5,63.6,58.3,66.6,60.1,56.7,95,89,77,29.87,29.59,12,1,14,0.54
2013-5-22,80.3,67.0,55.3,60.4,56.9,54.2,97,73,44,29.89,29.76,9,1,0,0.00
2013-5-23,65.2,62.7,59.6,61.3,59.4,55.8,96,89,75,30.11,29.88,5,0,0,0.29
2013-5-24,78.5,69.3,59.6,67.8,62.4,57.3,97,80,68,30.18,30.06,13,2,13,0.01
2013-5-25,83.3,73.9,64.6,70.3,64.3,57.9,84,73,58,30.14,29.95,14,4,19,0.00
2013-5-26,84.0,76.4,68.8,70.8,67.9,64.7,90,76,61,30.02,29.86,17,5,20,0.00
2013-5-27,83.2,77.5,71.3,70.6,68.6,64.7,90,75,63,29.90,29.66,22,6,22,0.00
2013-5-28,81.6,78.1,74.2,69.3,67.9,66.5,81,71,63,29.75,29.66,21,6,21,0.00
2013-5-29,79.0,74.9,66.9,69.6,67.2,62.9,95,77,70,29.77,29.61,18,5,22,0.25
2013-5-30,82.4,73.3,65.2,73.6,69.0,63.4,96,87,71,29.71,29.57,22,4,22,1.04
2013-5-31,87.5,80.8,73.2,74.7,72.8,69.7,93,77,64,29.70,29.52,18,5,20,0.00
2013-6-1,81.7,72.1,65.0,70.3,62.1,56.6,96,73,46,29.97,29.57,15,2,18,0.10
2013-6-2,73.8,65.9,59.4,58.7,56.1,52.4,86,71,57,30.05,29.95,7,1,0,0.00
2013-6-3,80.7,68.9,56.2,66.3,59.9,53.9,93,75,54,30.00,29.80,12,2,13,0.00
2013-6-4,81.7,74.2,66.2,70.4,66.5,63.0,94,77,64,29.94,29.70,22,2,25,0.42
2013-6-5,83.7,74.1,66.0,69.4,67.0,64.1,95,79,59,29.94,29.79,9,1,13,0.70
2013-6-6,78.7,71.1,63.6,65.5,60.3,54.4,90,71,45,29.92,29.85,6,1,0,0.00
2013-6-7,82.1,70.4,58.0,60.5,57.1,53.8,94,66,41,29.96,29.85,5,0,0,0.00
2013-6-8,82.3,73.6,62.5,64.6,59.9,55.9,83,63,45,29.88,29.73,14,2,14,0.00
2013-6-9,74.8,71.8,67.8,64.9,63.2,61.9,84,74,69,29.83,29.73,11,1,12,0.00
2013-6-10,93.7,89.5,82.7,70.8,68.6,66.0,66,51,42,29.84,29.77,14,4,14,0.00
2013-6-11,93.4,84.6,74.4,72.8,69.3,65.0,77,61,43,29.90,29.80,17,4,19,0.00
2013-6-12,93.7,84.9,77.0,73.9,71.0,68.4,82,65,45,29.90,29.81,20,5,22,0.00
2013-6-13,94.3,84.2,75.6,74.9,71.1,68.0,87,66,47,29.95,29.84,6,1,0,0.00
2013-6-14,94.2,85.0,74.9,77.5,72.6,68.7,83,68,49,29.92,29.81,11,2,13,0.00
2013-6-15,86.0,79.0,73.5,76.1,73.1,68.8,91,83,66,29.93,29.85,14,2,15,0.04
2013-6-16,91.5,76.4,69.2,75.9,71.0,65.5,95,84,57,29.94,29.81,13,2,16,1.17
2013-6-17,79.0,72.0,67.3,71.2,68.0,66.0,96,88,71,29.90,29.77,7,1,0,0.61
2013-6-18,88.1,79.6,66.8,71.6,67.3,63.1,96,68,46,29.98,29.87,10,1,0,0.00
2013-6-19,85.7,77.7,66.3,70.9,67.8,64.2,95,73,56,29.98,29.87,12,2,13,0.00
2013-6-20,89.8,79.4,73.8,76.7,70.8,67.5,83,75,63,29.95,29.90,15,4,15,0.00
2013-6-21,92.6,85.9,77.4,74.6,71.8,66.2,84,65,43,29.96,29.89,17,5,17,0.00
2013-6-22,84.9,78.4,75.3,72.7,71.1,70.1,84,79,66,29.94,29.91,11,3,13,0.00
2013-6-23,90.5,85.2,79.0,72.8,71.2,68.0,79,64,48,29.87,29.85,16,6,16,0.00
2013-6-24,90.6,84.7,75.8,72.5,70.1,66.2,83,63,47,29.94,29.82,14,5,17,0.00
2013-6-25,83.8,79.5,77.8,71.9,71.1,70.2,81,76,67,29.86,29.82,16,4,16,0.00
2013-6-26,94.3,87.5,78.7,77.3,73.9,68.6,75,65,55,29.83,29.75,15,4,18,0.00
2013-6-27,97.3,87.9,78.9,79.3,74.6,64.4,82,66,50,29.89,29.75,10,2,12,0.00
2013-6-28,96.7,84.7,77.9,72.6,68.3,63.5,75,59,34,29.90,29.74,7,1,0,0.00
2013-6-29,92.2,84.0,69.2,64.5,58.4,53.9,82,44,30,29.86,29.74,7,1,0,0.00
2013-6-30,84.7,76.7,68.7,59.6,56.9,53.8,70,51,38,29.93,29.81,6,1,0,0.00
2013-7-1,86.0,73.8,66.6,60.9,57.7,52.6,76,59,33,30.02,29.93,5,1,0,0.00
2013-7-2,86.8,76.7,60.6,58.4,54.2,48.6,86,49,30,30.06,29.97,5,1,0,0.00
2013-7-3,85.0,70.1,59.8,59.9,55.3,46.9,88,63,29,30.05,29.97,7,1,0,0.00
2013-7-4,89.4,80.0,64.0,64.6,61.2,57.1,83,55,36,29.99,29.86,12,2,14,0.00
2013-7-5,90.1,80.3,68.4,65.7,62.6,57.0,79,57,34,29.95,29.82,11,2,13,0.00
2013-7-6,88.3,80.5,73.1,67.8,64.6,62.7,71,59,46,29.92,29.84,10,3,13,0.00
2013-7-7,93.3,83.8,74.1,71.5,66.9,63.8,76,58,40,29.96,29.87,12,3,13,0.00
2013-7-8,93.8,84.6,76.4,75.7,70.7,67.1,79,64,48,30.00,29.91,10,2,0,0.00
2013-7-9,97.4,87.9,77.8,73.5,71.1,68.8,79,59,42,29.99,29.86,14,4,14,0.00
2013-7-10,100.8,89.1,80.3,73.5,68.8,65.5,73,52,34,29.92,29.81,10,2,0,0.00
2013-7-11,99.5,86.5,77.2,77.6,73.2,70.3,83,66,42,29.91,29.80,9,0,0,0.00
2013-7-12,95.6,85.9,77.1,75.0,71.8,69.6,80,64,47,29.93,29.85,11,2,0,0.00
2013-7-13,84.4,79.6,75.4,70.9,67.1,63.7,72,66,58,29.97,29.89,10,2,0,0.00
2013-7-14,88.2,79.6,71.3,67.0,63.7,59.6,77,59,44,29.98,29.87,10,2,0,0.03
2013-7-15,77.6,72.0,66.1,70.4,66.3,62.0,95,83,70,30.12,29.97,11,1,15,0.51
2013-7-16,90.2,78.4,70.8,73.2,70.1,67.5,95,77,50,30.18,30.10,8,0,0,0.02
2013-7-17,92.5,82.6,73.7,74.2,71.0,68.0,90,70,47,30.23,30.11,8,1,0,0.00
2013-7-18,94.0,84.1,73.8,74.0,71.3,66.5,93,68,42,30.13,29.94,10,1,0,0.00
2013-7-19,92.9,80.9,75.4,73.5,71.2,67.8,86,74,45,29.97,29.91,8,1,0,0.00
2013-7-20,86.1,80.7,75.6,73.7,72.1,70.6,85,75,66,29.87,29.86,7,1,0,0.00
2013-7-21,84.0,77.6,72.1,77.1,73.3,69.8,95,87,79,29.85,29.76,8,2,12,0.84
2013-7-22,93.2,86.1,76.5,77.8,74.4,69.8,88,69,53,29.85,29.71,12,3,12,0.41
2013-7-23,98.6,87.0,79.4,75.6,73.4,71.5,78,65,44,29.83,29.74,11,2,0,0.00
2013-7-24,81.7,80.6,79.3,72.9,72.5,72.2,80,76,73,29.94,29.92,0,0,0,0.46
2013-7-25,86.4,81.1,71.7,74.2,72.3,69.0,93,75,61,30.03,29.92,7,0,1,0.00
2013-7-26,82.6,76.9,72.0,73.9,71.9,69.2,94,85,73,29.94,29.88,14,1,14,0.53
2013-7-27,86.1,77.9,67.2,70.0,65.2,59.1,97,68,43,30.02,29.90,4,0,0,0.00
2013-7-28,82.7,74.6,68.8,68.7,64.2,61.3,81,71,61,29.97,29.93,8,1,0,0.00
2013-7-29,75.8,74.4,73.6,69.8,69.2,68.8,85,84,82,29.95,29.92,10,2,0,0.00
2013-8-31,100.0,91.0,78.9,73.2,70.0,67.5,72,52,37,29.82,29.70,9,2,0,0.00
2013-9-15,87.5,84.5,81.6,68.1,67.5,66.4,63,57,52,29.96,29.90,2,0,0,0.00
2013-9-16,87.8,78.0,72.2,70.0,68.2,66.4,88,73,51,30.12,29.99,6,0,0,0.00
2013-9-17,83.7,72.4,69.4,71.9,68.5,66.4,94,88,63,30.08,29.93,3,0,0,0.00
2013-9-18,92.0,83.6,74.4,72.9,70.3,67.2,85,66,48,29.94,29.81,15,3,16,0.00
2013-9-19,89.8,78.8,73.3,75.0,70.6,68.3,92,77,56,29.91,29.77,15,2,16,0.16
2013-9-20,72.1,68.4,60.7,68.4,61.6,55.9,97,80,58,29.95,29.89,5,0,0,0.40
2013-9-21,80.5,63.4,54.4,56.6,53.9,50.8,95,75,39,30.00,29.92,4,0,0,0.00
2013-9-22,68.3,57.5,53.2,55.9,52.8,50.9,95,86,57,29.94,29.89,7,0,0,0.00
2013-9-23,69.0,60.9,57.4,56.6,53.9,52.1,83,78,65,29.86,29.83,8,1,0,0.00
2013-9-24,83.9,73.3,63.6,59.6,57.1,54.4,82,59,40,29.86,29.80,16,1,16,0.00
2013-9-25,86.8,70.0,57.5,62.6,58.7,55.8,96,72,37,29.87,29.73,6,0,0,0.00
2013-9-26,82.1,70.3,64.7,63.2,60.8,59.0,85,73,52,29.85,29.77,11,2,0,0.00
2013-9-27,89.1,80.1,67.3,65.2,61.1,57.6,83,56,36,29.90,29.78,14,3,15,0.00
2013-9-28,73.0,65.9,61.0,68.5,63.8,59.0,95,93,84,29.95,29.89,4,0,0,1.37
2013-9-30,77.8,61.8,52.8,60.3,55.5,51.4,97,82,50,29.89,29.84,6,0,0,0.00
2013-10-1,86.8,77.8,66.0,71.5,67.1,63.3,97,72,47,29.91,29.83,10,2,0,0.00
2013-10-2,85.2,77.1,69.8,72.5,69.7,68.3,96,79,60,29.94,29.80,11,2,0,0.00
2013-10-3,87.2,78.2,71.4,73.4,70.2,67.9,90,77,61,29.85,29.70,14,4,0,0.00
2013-10-4,87.0,79.4,73.7,71.8,69.6,67.6,89,73,54,29.83,29.72,15,4,0,0.00
2013-10-5,77.9,59.5,49.9,67.9,49.1,40.1,94,71,37,30.07,29.81,8,0,0,0.65
2013-10-6,69.3,56.8,47.1,48.2,43.6,37.9,86,64,41,30.04,29.97,8,1,0,0.00
2013-10-7,77.1,59.1,45.0,50.5,44.3,37.6,92,64,26,30.16,30.01,3,0,0,0.00
2013-10-8,75.6,62.3,49.6,53.4,49.9,47.1,93,67,38,30.11,29.98,11,1,0,0.00
2013-10-9,79.2,65.5,52.6,59.6,53.4,48.8,88,67,46,30.06,29.95,8,1,0,0.00
2013-10-10,80.5,68.3,56.9,61.9,57.0,51.7,88,69,49,30.02,29.82,14,2,0,0.00
2013-10-11,81.9,72.0,63.2,68.8,64.1,56.9,87,77,63,29.84,29.73,13,3,0,0.00
2013-10-12,76.4,68.4,59.2,68.7,57.6,52.2,92,70,48,30.10,29.80,4,0,0,0.01
2013-10-13,76.6,68.6,63.2,64.9,57.3,51.0,73,67,61,30.24,30.10,6,0,0,0.00
2013-10-14,68.0,63.8,59.0,64.3,59.0,53.2,96,85,66,30.15,29.87,11,2,0,0.76
2013-10-15,67.9,59.8,54.8,66.7,54.3,47.3,96,82,64,30.07,29.84,8,0,0,0.08
2013-10-16,62.8,54.0,46.3,46.9,43.8,40.9,89,69,52,30.15,30.02,3,0,0,0.00
2013-10-17,68.5,53.3,42.3,50.6,45.3,40.7,96,77,43,30.07,29.93,7,1,0,0.00
2013-10-18,56.8,51.1,46.8,48.2,45.8,43.6,95,82,70,30.05,29.98,2,0,0,0.00
2013-10-19,49.7,41.1,35.5,42.4,37.7,34.1,96,88,76,30.17,30.12,8,2,0,0.00
2013-10-20,70.5,59.8,44.8,46.2,42.3,37.5,83,55,32,29.97,29.81,14,2,0,0.00
2013-10-21,57.4,53.6,51.6,48.1,45.8,41.1,84,75,63,30.09,29.92,3,0,0,0.01
2013-10-22,73.8,58.2,40.6,49.6,44.8,38.7,94,65,37,30.07,29.96,12,0,0,0.00
2013-10-23,68.1,55.0,42.9,49.3,44.1,39.3,89,68,43,30.16,29.98,8,0,0,0.00
2013-10-24,58.8,51.2,45.7,47.0,39.1,32.1,92,65,44,30.40,30.05,5,0,0,0.00
2013-10-25,59.8,49.5,40.1,42.1,35.4,32.1,75,59,39,30.47,30.21,13,1,0,0.00
2013-10-26,68.5,56.4,48.6,57.0,49.2,41.6,94,77,65,30.21,30.06,10,1,0,0.00
2013-10-27,71.0,55.6,40.7,53.7,41.3,29.1,94,63,23,30.11,29.95,6,0,0,0.00
2013-10-28,70.4,62.1,54.4,59.4,56.2,51.5,95,82,63,30.11,29.98,10,2,0,0.00
2013-10-29,75.2,69.4,62.5,68.5,65.0,58.8,91,86,78,30.03,29.87,17,3,0,0.02
2013-10-30,71.7,68.1,64.3,67.9,65.0,62.3,97,90,86,29.95,29.71,16,3,0,0.94
2013-10-31,69.5,63.0,50.5,65.1,56.2,46.2,97,80,51,29.77,29.52,23,2,0,0.33
2013-11-1,71.5,57.0,44.9,48.4,44.0,40.1,95,66,33,30.03,29.76,11,1,0,0.00
2013-11-2,64.6,52.1,42.3,43.6,38.3,31.9,86,62,31,30.25,30.03,9,0,0,0.00
2013-11-3,62.3,52.3,40.7,44.1,40.3,36.8,89,65,43,30.20,29.94,18,3,0,0.00
2013-11-4,64.9,58.0,53.0,55.9,50.7,43.9,89,77,63,30.08,29.92,15,4,0,0.01
2013-11-5,64.8,60.3,56.3,63.0,58.8,54.5,96,95,89,30.07,29.88,14,3,0,0.63
2013-11-6,63.1,48.4,43.0,60.7,44.5,38.6,95,87,57,30.25,29.90,6,1,0,0.23
2013-11-7,68.0,50.9,34.0,43.3,39.0,32.7,97,69,30,30.46,30.32,7,0,0,0.00
2013-11-8,67.9,55.0,40.7,41.9,38.1,32.3,89,57,28,30.32,30.02,18,3,0,0.00
2013-11-9,67.2,57.8,51.0,47.0,44.6,40.3,83,63,38,30.24,30.04,9,1,0,0.00
2013-11-10,69.5,57.9,49.0,49.7,47.6,45.9,91,70,46,30.34,30.23,6,0,0,0.00
2013-11-11,71.5,58.6,44.6,56.9,49.8,38.2,88,74,54,30.44,30.13,9,1,0,0.00
2013-11-12,44.6,36.1,28.9,38.4,22.3,17.3,79,58,37,30.79,30.43,8,1,0,0.00
2013-11-13,52.6,38.2,24.0,27.0,23.0,19.9,91,58,28,30.72,30.32,13,2,0,0.00
2013-11-14,55.6,42.9,34.2,30.5,26.5,24.0,67,54,33,30.32,30.02,16,4,0,0.00
2013-11-15,62.4,54.8,45.4,52.1,47.6,42.4,90,77,61,29.95,29.77,14,4,0,0.10
2013-11-16,74.8,66.6,55.1,65.4,60.1,52.1,92,80,61,29.78,29.51,22,6,0,0.03
2013-11-17,76.4,67.9,48.5,65.9,43.6,21.8,84,47,19,30.08,29.48,19,3,0,0.00
2013-11-18,66.3,53.8,40.8,39.4,30.7,22.1,73,44,19,30.25,30.06,4,0,0,0.00
2013-11-19,59.1,55.0,51.7,33.1,30.2,25.2,46,39,28,30.20,29.97,14,2,0,0.00
2013-11-20,60.9,55.7,48.3,47.7,37.8,29.4,63,51,41,30.00,29.83,18,4,0,0.00
2013-11-21,60.3,50.8,35.9,53.3,46.0,32.7,93,84,59,30.36,29.91,11,2,0,0.02
2013-11-22,35.9,32.9,31.6,32.6,29.0,26.4,92,85,77,30.58,30.35,11,1,0,0.07
2013-11-23,40.4,34.9,28.8,29.0,23.1,13.9,85,63,37,30.70,30.56,8,1,0,0.00
2013-11-24,32.2,28.4,24.7,19.7,16.2,13.7,69,60,53,30.71,30.37,6,0,0,0.00
2013-11-25,37.0,34.1,31.0,32.2,27.5,17.6,85,77,55,30.37,30.21,6,0,0,0.01
2013-11-26,50.5,39.6,31.5,32.1,27.2,14.8,85,62,42,30.41,30.18,10,1,0,0.00
2013-11-27,42.4,31.9,22.5,16.6,13.7,11.0,68,48,30,30.49,30.32,7,1,0,0.00
2013-11-28,59.1,42.4,29.9,32.2,24.9,16.2,62,51,35,30.44,30.29,11,2,0,0.00
2013-11-29,57.1,43.7,30.6,31.7,27.6,24.6,81,56,29,30.49,30.29,11,2,0,0.00
2013-11-30,62.9,50.2,41.9,48.3,40.8,31.1,92,71,56,30.30,30.08,14,3,0,0.00
2013-12-1,55.9,49.9,43.0,52.0,47.7,41.7,97,92,86,30.10,29.87,4,0,0,0.00
2013-12-2,59.3,51.7,46.7,50.2,48.0,45.0,95,88,64,29.87,29.64,10,1,11,0.00
2013-12-3,62.2,52.3,45.1,54.3,49.5,44.0,98,91,73,29.64,29.48,10,2,13,0.00
2013-12-4,50.8,42.8,31.2,48.7,38.4,23.6,96,85,73,30.04,29.47,14,2,16,0.00
2013-12-5,31.5,26.1,22.3,24.0,17.5,13.9,86,70,56,30.34,30.03,9,2,13,0.00
2013-12-6,24.7,21.2,16.7,18.9,14.5,6.2,90,76,58,30.63,30.29,9,2,11,0.00
2013-12-7,18.9,13.8,11.5,9.0,6.1,5.1,75,71,63,30.70,30.62,7,1,8,0.00
2013-12-8,31.0,30.1,27.4,28.2,26.7,24.5,94,87,82,30.24,30.02,12,3,13,0.00
2013-12-9,29.1,24.9,20.9,24.7,19.1,16.0,90,78,66,30.44,30.21,7,1,10,0.00
2013-12-10,37.4,26.2,15.0,23.1,18.1,12.6,91,72,54,30.49,30.27,9,2,12,0.12
2013-12-11,40.2,30.7,21.5,28.4,22.6,18.9,92,73,56,30.64,30.29,10,1,12,0.09
2013-12-12,42.6,32.0,19.0,29.7,23.8,16.0,89,72,56,30.64,30.24,15,3,16,0.03
2013-12-13,41.3,39.0,36.3,39.1,34.8,29.2,96,85,70,30.24,29.81,15,4,18,0.46
2013-12-14,41.0,36.0,26.9,39.9,31.5,24.6,97,84,64,30.28,29.84,13,2,14,0.01
2013-12-15,60.7,41.2,24.0,35.9,28.6,22.3,94,66,31,30.29,30.11,13,2,15,0.00
2013-12-16,70.7,51.8,38.5,36.4,32.3,29.5,73,50,22,30.14,30.03,10,2,13,0.00
2013-12-17,62.4,48.2,37.8,36.8,33.1,30.8,79,59,31,30.30,30.12,8,1,9,0.00
2013-12-18,47.4,43.1,35.7,34.6,32.2,30.8,82,65,61,30.18,30.15,10,3,12,0.00
2013-12-19,64.2,63.0,60.9,55.4,54.1,53.3,77,73,69,29.69,29.63,19,7,22,0.00
2013-12-20,60.4,36.1,31.0,56.8,30.5,24.9,88,80,74,29.96,29.71,14,2,15,0.00
2013-12-21,33.5,33.0,32.6,32.2,31.6,31.1,95,94,94,29.75,29.51,0,0,0,0.01
2013-12-22,31.3,29.7,28.4,29.5,26.9,25.0,93,89,86,30.32,29.93,0,0,0,0.00
2013-12-23,30.7,27.1,24.5,25.9,23.6,20.9,91,87,81,30.62,30.42,0,0,0,0.00
2013-12-24,18.1,17.6,17.1,15.9,15.3,14.7,93,91,89,30.57,30.53,0,0,0,0.00
2013-12-26,51.4,35.1,24.2,36.3,29.9,23.0,96,83,55,30.42,30.31,11,2,13,0.01
2013-12-27,61.1,45.0,33.2,34.3,30.0,27.4,80,59,31,30.41,30.30,9,1,11,0.00
2013-12-28,58.1,45.8,36.0,40.1,35.3,30.5,82,68,45,30.21,29.91,11,2,12,0.00
2013-12-29,44.4,35.4,28.0,39.5,28.2,18.8,84,75,68,30.25,29.96,12,3,14,0.00
2013-12-30,40.1,28.0,16.8,19.3,13.4,6.8,70,55,40,30.36,30.27,8,1,9,0.00
2013-12-31,56.4,36.3,24.7,29.1,21.9,18.5,79,59,25,30.39,30.17,10,2,19,0.00
2014-1-1,41.3,37.7,36.3,31.0,29.2,28.4,75,71,66,30.03,29.98,10,4,12,0.00
2014-1-2,36.2,25.6,15.2,18.2,12.9,8.2,76,59,47,30.51,30.42,7,1,13,0.00